Time;durP1;ratioP1;P1;durP2;ratioP2;P2;SDS_P1;SDS_P2;PMS_P1;PMS_P2;Temp;Humidity;BMP_temperature;BMP_pressure;BME280_temperature;BME280_humidity;BME280_pressure;Samples;Min_cycle;Max_cycle;Signal;HPM_P1;HPM_P2
2022/04/04 00:02:10;;;;;;;5.60;5.10;;;;;;;1.15;67.96;100906.56;5113562;28;20400;-79
2022/04/04 00:04:35;;;;;;;5.95;5.40;;;;;;;1.10;68.24;100901.72;5111051;27;20547;-79
2022/04/04 00:07:02;;;;;;;6.73;5.47;;;;;;;1.05;66.96;100904.91;5113574;27;20422;-79
2022/04/04 00:09:28;;;;;;;6.88;6.20;;;;;;;0.96;68.32;100905.09;5125238;27;20422;-79
2022/04/04 00:11:53;;;;;;;5.78;5.13;;;;;;;1.00;68.51;100904.59;5127926;27;20389;-79
2022/04/04 00:14:18;;;;;;;6.50;5.60;;;;;;;1.06;68.46;100905.72;5105006;27;20409;-79
2022/04/04 00:16:43;;;;;;;6.10;5.53;;;;;;;1.04;68.61;100911.25;5118937;27;20399;-79
2022/04/04 00:19:09;;;;;;;5.83;5.33;;;;;;;1.01;68.26;100900.94;5115693;27;20754;-79
2022/04/04 00:21:34;;;;;;;5.93;5.40;;;;;;;0.99;68.75;100908.25;5109303;27;20398;-79
2022/04/04 00:23:59;;;;;;;6.10;5.50;;;;;;;1.02;68.68;100904.44;5124023;27;20758;-79
2022/04/04 00:26:25;;;;;;;5.47;4.97;;;;;;;1.05;68.36;100899.56;5118434;27;20895;-79
2022/04/04 00:28:50;;;;;;;14.57;9.23;;;;;;;0.96;68.99;100902.44;5108797;27;20525;-79
2022/04/04 00:31:18;;;;;;;5.83;5.33;;;;;;;0.92;68.97;100901.13;5114164;27;20494;-79
2022/04/04 00:33:44;;;;;;;7.30;5.75;;;;;;;0.93;69.10;100900.09;5119496;27;20447;-79
2022/04/04 00:36:09;;;;;;;7.50;6.80;;;;;;;0.84;69.48;100896.63;5116283;27;20398;-79
2022/04/04 00:38:34;;;;;;;6.87;6.17;;;;;;;0.77;69.46;100900.16;5116737;27;20470;-79
2022/04/04 00:41:00;;;;;;;7.33;6.53;;;;;;;0.79;69.74;100898.97;5116178;27;20398;-79
2022/04/04 00:43:26;;;;;;;6.32;5.65;;;;;;;0.81;69.52;100901.47;5123945;27;20446;-79
2022/04/04 00:45:51;;;;;;;6.50;5.82;;;;;;;0.79;69.76;100896.31;5107548;28;20449;-79
2022/04/04 00:48:16;;;;;;;5.65;5.15;;;;;;;0.80;69.16;100895.31;5113239;27;20420;-79
2022/04/04 00:50:42;;;;;;;7.50;5.97;;;;;;;0.80;69.28;100897.13;5108510;27;20402;-79
2022/04/04 00:53:09;;;;;;;6.70;5.80;;;;;;;0.80;69.82;100897.97;5127694;27;20424;-79
2022/04/04 00:55:35;;;;;;;7.63;5.75;;;;;;;0.78;69.64;100893.81;5107255;28;20938;-79
2022/04/04 00:58:01;;;;;;;6.07;5.15;;;;;;;0.71;69.87;100896.34;5111995;27;20575;-79
2022/04/04 01:00:26;;;;;;;6.63;5.40;;;;;;;0.68;69.98;100893.19;5115552;27;20432;-79
2022/04/04 01:02:52;;;;;;;8.07;5.80;;;;;;;0.69;70.44;100890.31;5113739;27;20758;-79
2022/04/04 01:05:17;;;;;;;6.70;6.10;;;;;;;0.69;70.08;100892.19;5122378;27;20410;-80
2022/04/04 01:07:42;;;;;;;6.43;5.83;;;;;;;0.67;70.21;100884.34;5126895;27;20395;-79
2022/04/04 01:10:12;;;;;;;5.43;4.93;;;;;;;0.58;70.05;100882.69;5107288;27;20748;-80
2022/04/04 01:12:52;;;;;;;5.68;5.18;;;;;;;0.55;70.34;100883.03;5102722;27;20398;-79
2022/04/04 01:15:18;;;;;;;6.80;5.53;;;;;;;0.65;69.63;100880.19;5105792;27;20899;-79
2022/04/04 01:17:45;;;;;;;5.85;5.35;;;;;;;0.70;69.71;100875.16;5116396;27;20497;-80
2022/04/04 01:20:11;;;;;;;8.30;5.75;;;;;;;0.63;69.74;100866.19;5110752;28;20900;-79
2022/04/04 01:22:36;;;;;;;6.20;5.60;;;;;;;0.67;69.60;100865.66;5112439;27;20403;-79
2022/04/04 01:25:05;;;;;;;5.82;5.32;;;;;;;0.68;69.35;100864.69;5117191;27;20499;-79
2022/04/04 01:27:30;;;;;;;6.30;5.57;;;;;;;0.61;69.47;100857.53;5111829;27;20422;-80
2022/04/04 01:29:56;;;;;;;5.70;5.23;;;;;;;0.56;69.95;100854.56;5131631;27;20776;-80
2022/04/04 01:32:21;;;;;;;5.83;5.23;;;;;;;0.47;70.64;100853.72;5116006;27;20439;-79
2022/04/04 01:34:46;;;;;;;5.80;5.30;;;;;;;0.44;69.80;100849.56;5119817;27;20465;-80
2022/04/04 01:37:12;;;;;;;5.70;5.20;;;;;;;0.31;70.06;100854.59;5110270;27;20436;-79
2022/04/04 01:39:37;;;;;;;7.20;5.23;;;;;;;0.31;70.29;100849.25;5115955;27;20793;-79
2022/04/04 01:42:03;;;;;;;5.50;5.00;;;;;;;0.38;70.24;100844.91;5115190;27;20453;-79
2022/04/04 01:44:28;;;;;;;6.07;5.47;;;;;;;0.31;70.11;100851.09;5117215;27;20410;-79
2022/04/04 01:46:54;;;;;;;6.83;5.90;;;;;;;0.37;70.40;100847.75;5122569;27;20409;-79
2022/04/04 01:49:19;;;;;;;6.90;6.00;;;;;;;0.27;70.72;100842.59;5108819;27;20422;-79
2022/04/04 01:51:44;;;;;;;6.73;5.90;;;;;;;0.23;70.21;100846.59;5118140;27;20410;-80
2022/04/04 01:54:10;;;;;;;6.53;5.80;;;;;;;0.27;70.55;100844.41;5106745;28;20394;-80
2022/04/04 01:56:35;;;;;;;6.43;5.60;;;;;;;0.25;70.07;100841.09;5114754;27;20396;-80
2022/04/04 01:59:01;;;;;;;7.75;5.55;;;;;;;0.20;70.48;100846.94;5113655;27;20962;-79
2022/04/04 02:01:27;;;;;;;6.63;5.78;;;;;;;0.23;70.37;100846.59;5109188;27;20755;-80
2022/04/04 02:03:55;;;;;;;5.50;5.00;;;;;;;0.20;70.29;100846.13;5122229;27;20385;-80
2022/04/04 02:06:21;;;;;;;5.90;5.35;;;;;;;0.11;70.31;100841.78;5108753;27;20792;-79
2022/04/04 02:08:48;;;;;;;5.57;5.15;;;;;;;0.04;70.38;100846.09;5099245;27;20900;-79
2022/04/04 02:11:15;;;;;;;5.95;5.13;;;;;;;0.06;70.27;100839.63;5105906;28;20948;-79
2022/04/04 02:13:41;;;;;;;5.53;5.13;;;;;;;0.06;70.90;100833.47;5099547;28;20402;-79
2022/04/04 02:16:07;;;;;;;5.23;4.90;;;;;;;0.03;70.36;100831.16;5113556;27;20468;-80
2022/04/04 02:18:33;;;;;;;5.85;5.05;;;;;;;0.02;70.85;100829.47;5122121;27;20974;-80
2022/04/04 02:20:59;;;;;;;5.75;5.22;;;;;;;0.04;70.12;100817.63;5109914;27;20400;-80
2022/04/04 02:23:25;;;;;;;6.53;5.30;;;;;;;0.05;69.95;100813.97;5125489;27;20407;-80
2022/04/04 02:25:53;;;;;;;6.28;5.68;;;;;;;0.11;70.48;100821.28;5113116;27;20447;-79
2022/04/04 02:28:19;;;;;;;5.93;5.32;;;;;;;0.10;70.06;100824.94;5117148;28;20404;-79
2022/04/04 02:30:46;;;;;;;5.47;5.07;;;;;;;-0.05;70.48;100821.31;5122086;27;20439;-80
2022/04/04 02:33:15;;;;;;;5.63;5.07;;;;;;;-0.04;70.67;100826.50;5108290;27;20492;-80
2022/04/04 02:35:40;;;;;;;5.43;4.93;;;;;;;-0.03;70.97;100821.97;5103876;28;20398;-80
2022/04/04 02:38:07;;;;;;;5.50;5.00;;;;;;;-0.04;70.34;100821.16;5111983;27;20392;-80
2022/04/04 02:40:33;;;;;;;5.22;4.82;;;;;;;-0.05;71.02;100823.97;5105586;28;20416;-80
2022/04/04 02:42:59;;;;;;;5.03;4.63;;;;;;;-0.02;70.30;100821.81;5120425;28;20402;-80
2022/04/04 02:45:25;;;;;;;5.50;5.10;;;;;;;0.00;70.52;100821.66;5107328;28;20428;-80
2022/04/04 02:47:50;;;;;;;6.70;5.00;;;;;;;-0.05;70.88;100816.81;5117116;28;20441;-79
2022/04/04 02:50:16;;;;;;;5.30;4.80;;;;;;;-0.06;70.95;100820.47;5117808;27;20484;-80
2022/04/04 02:52:42;;;;;;;6.20;5.60;;;;;;;-0.09;70.57;100818.16;5125892;27;20884;-80
2022/04/04 02:57:52;;;;;;;6.20;5.60;;;;;;;-0.23;70.39;100816.16;5100556;27;20444;-80
2022/04/04 03:00:19;;;;;;;6.57;6.00;;;;;;;-0.30;70.47;100825.81;5107084;28;20395;-79
2022/04/04 03:02:48;;;;;;;6.13;5.53;;;;;;;-0.25;70.27;100812.00;5113659;27;20414;-80
2022/04/04 03:05:13;;;;;;;6.07;5.57;;;;;;;-0.37;71.04;100822.16;5111235;27;20980;-80
2022/04/04 03:07:39;;;;;;;5.23;4.80;;;;;;;-0.46;71.55;100817.00;5122180;27;20563;-80
2022/04/04 03:10:05;;;;;;;6.43;5.87;;;;;;;-0.47;71.60;100820.66;5109138;28;20411;-80
2022/04/04 03:12:31;;;;;;;8.07;7.07;;;;;;;-0.47;71.36;100817.97;5116347;27;20443;-80
2022/04/04 03:14:56;;;;;;;10.23;8.15;;;;;;;-0.53;71.71;100814.16;5113635;27;20817;-80
2022/04/04 03:17:21;;;;;;;8.17;7.37;;;;;;;-0.55;72.22;100824.97;5119650;27;20393;-80
2022/04/04 03:19:47;;;;;;;7.53;6.83;;;;;;;-0.47;72.12;100818.81;5122398;27;20546;-80
2022/04/04 03:22:12;;;;;;;9.80;6.50;;;;;;;-0.51;72.54;100820.13;5111041;27;20396;-81
2022/04/04 03:24:38;;;;;;;7.07;6.43;;;;;;;-0.47;72.37;100829.47;5124743;27;20408;-80
2022/04/04 03:27:04;;;;;;;7.27;6.57;;;;;;;-0.55;73.25;100824.13;5107388;28;20424;-80
2022/04/04 03:29:29;;;;;;;7.45;6.72;;;;;;;-0.50;73.02;100816.50;5111642;28;20416;-80
2022/04/04 03:31:54;;;;;;;7.20;6.47;;;;;;;-0.58;73.25;100811.97;5119512;27;20753;-80
2022/04/04 03:34:20;;;;;;;7.13;6.37;;;;;;;-0.75;73.53;100818.25;5106956;28;20408;-80
2022/04/04 03:36:47;;;;;;;9.40;7.40;;;;;;;-0.74;73.21;100816.44;5112404;27;20491;-80
2022/04/04 03:39:13;;;;;;;7.70;6.90;;;;;;;-0.73;72.81;100823.44;5116957;27;20498;-80
2022/04/04 03:41:39;;;;;;;7.72;6.50;;;;;;;-0.73;72.70;100818.13;5120762;27;20398;-80
2022/04/04 03:44:06;;;;;;;6.38;5.75;;;;;;;-0.83;73.30;100823.59;5120101;27;20395;-80
2022/04/04 03:46:32;;;;;;;6.78;6.10;;;;;;;-0.79;72.87;100808.94;5117246;27;20453;-80
2022/04/04 03:48:57;;;;;;;6.13;5.60;;;;;;;-0.73;72.38;100810.97;5112880;28;20938;-80
2022/04/04 03:51:23;;;;;;;6.47;5.95;;;;;;;-0.69;71.67;100816.78;5109213;28;20403;-81
2022/04/04 03:53:48;;;;;;;7.05;6.35;;;;;;;-0.70;71.57;100807.13;5130539;27;20392;-80
2022/04/04 03:56:14;;;;;;;7.30;6.20;;;;;;;-0.69;72.05;100809.63;5122028;27;20413;-80
2022/04/04 03:58:39;;;;;;;6.30;5.70;;;;;;;-0.62;71.74;100809.78;5110485;28;20400;-81
2022/04/04 04:01:05;;;;;;;6.77;6.17;;;;;;;-0.57;71.25;100808.31;5104189;27;20400;-80
2022/04/04 04:03:31;;;;;;;6.83;6.17;;;;;;;-0.55;71.07;100808.97;5091679;28;20404;-81
2022/04/04 04:06:11;;;;;;;6.93;6.33;;;;;;;-0.50;71.50;100802.34;5108997;27;20412;-81
2022/04/04 04:08:37;;;;;;;7.22;6.40;;;;;;;-0.40;71.09;100805.69;5097560;28;20413;-81
2022/04/04 04:11:03;;;;;;;6.68;6.07;;;;;;;-0.37;70.76;100806.19;5123306;27;20422;-80
2022/04/04 04:13:28;;;;;;;6.88;6.25;;;;;;;-0.45;71.02;100797.34;5101846;27;20404;-80
2022/04/04 04:15:54;;;;;;;7.38;6.65;;;;;;;-0.56;70.90;100798.53;5108257;28;20437;-81
2022/04/04 04:18:20;;;;;;;8.00;7.20;;;;;;;-0.48;71.19;100797.66;5107000;28;20392;-80
2022/04/04 04:20:45;;;;;;;9.70;7.73;;;;;;;-0.49;70.73;100783.53;5104775;28;20419;-80
2022/04/04 04:23:10;;;;;;;7.90;6.97;;;;;;;-0.48;70.66;100790.53;5103632;28;20400;-80
2022/04/04 04:25:37;;;;;;;8.30;6.70;;;;;;;-0.39;70.58;100789.53;5105381;28;20446;-80
2022/04/04 04:28:05;;;;;;;7.80;6.78;;;;;;;-0.28;70.09;100796.34;5099733;27;20421;-80
2022/04/04 04:30:31;;;;;;;10.45;6.85;;;;;;;-0.26;70.11;100789.00;5092630;28;20981;-82
2022/04/04 04:32:57;;;;;;;8.50;7.40;;;;;;;-0.41;70.61;100790.69;5109877;27;20785;-79
2022/04/04 04:35:23;;;;;;;9.10;7.25;;;;;;;-0.48;71.14;100787.84;5123903;27;20390;-80
2022/04/04 04:37:52;;;;;;;9.25;7.63;;;;;;;-0.55;71.25;100792.16;5119076;27;20421;-80
2022/04/04 04:40:18;;;;;;;8.25;7.32;;;;;;;-0.57;71.58;100800.34;5096315;27;20894;-80
2022/04/04 04:42:45;;;;;;;7.60;6.72;;;;;;;-0.69;71.49;100793.66;5105674;27;20504;-79
2022/04/04 04:45:11;;;;;;;7.80;6.72;;;;;;;-0.84;71.93;100789.97;5115939;27;20400;-80
2022/04/04 04:47:37;;;;;;;9.90;6.93;;;;;;;-0.82;72.46;100787.97;5112332;27;20408;-80
2022/04/04 04:50:04;;;;;;;9.88;6.82;;;;;;;-0.83;72.07;100786.34;5100346;28;20406;-80
2022/04/04 04:52:30;;;;;;;8.45;7.55;;;;;;;-0.70;71.54;100780.53;5109509;28;20396;-80
2022/04/04 04:54:55;;;;;;;8.70;7.65;;;;;;;-0.66;71.32;100780.00;5100387;28;20397;-80
2022/04/04 04:57:21;;;;;;;8.90;7.00;;;;;;;-0.60;70.95;100778.53;5106349;28;20443;-80
2022/04/04 04:59:47;;;;;;;7.88;7.07;;;;;;;-0.67;71.43;100781.03;5105920;28;20823;-80
2022/04/04 05:02:13;;;;;;;18.70;16.10;;;;;;;-0.85;72.14;100775.00;5105358;27;20408;-80
2022/04/04 05:04:38;;;;;;;18.67;13.87;;;;;;;-0.85;72.02;100777.66;5095291;27;20394;-81
2022/04/04 05:07:05;;;;;;;24.03;16.17;;;;;;;-0.79;71.59;100770.88;5095859;27;20409;-80
2022/04/04 05:09:30;;;;;;;14.23;11.20;;;;;;;-0.78;72.52;100772.50;5097573;28;20427;-80
2022/04/04 05:11:55;;;;;;;16.87;11.60;;;;;;;-0.64;72.00;100775.38;5097588;27;20440;-82
2022/04/04 05:14:21;;;;;;;16.60;10.87;;;;;;;-0.60;71.48;100774.06;5108830;27;20451;-83
2022/04/04 05:16:47;;;;;;;12.10;9.68;;;;;;;-0.56;71.65;100770.03;5111207;28;20392;-83
2022/04/04 05:19:13;;;;;;;10.65;9.18;;;;;;;-0.50;71.33;100779.22;5110053;28;20408;-82
2022/04/04 05:21:40;;;;;;;10.50;8.88;;;;;;;-0.55;71.66;100779.69;5115941;27;20827;-82
2022/04/04 05:24:06;;;;;;;10.43;8.25;;;;;;;-0.44;71.62;100778.56;5110481;27;20443;-82
2022/04/04 05:26:32;;;;;;;10.07;8.63;;;;;;;-0.36;70.96;100785.72;5104149;28;20402;-81
2022/04/04 05:28:58;;;;;;;10.45;8.15;;;;;;;-0.33;71.09;100783.53;5100422;28;20460;-82
2022/04/04 05:31:24;;;;;;;10.27;7.68;;;;;;;-0.30;71.76;100791.22;5098480;28;20765;-81
2022/04/04 05:33:50;;;;;;;9.65;8.15;;;;;;;-0.32;71.13;100787.84;5105974;28;20396;-82
2022/04/04 05:36:16;;;;;;;10.23;8.27;;;;;;;-0.31;71.02;100791.34;5107598;27;21058;-82
2022/04/04 05:38:41;;;;;;;11.33;8.53;;;;;;;-0.27;71.25;100785.53;5100405;28;20410;-81
2022/04/04 05:41:06;;;;;;;10.53;8.17;;;;;;;-0.22;71.46;100791.19;5095602;28;20420;-80
2022/04/04 05:43:32;;;;;;;10.20;8.52;;;;;;;-0.18;71.05;100794.34;5113371;27;20396;-79
2022/04/04 05:45:57;;;;;;;11.20;9.10;;;;;;;-0.14;71.57;100790.38;5110719;27;20545;-80
2022/04/04 05:48:25;;;;;;;13.60;10.10;;;;;;;-0.07;71.30;100796.69;5115460;27;20470;-79
2022/04/04 05:50:51;;;;;;;10.23;9.18;;;;;;;0.02;71.35;100790.34;5114205;27;20403;-81
2022/04/04 05:53:16;;;;;;;10.45;9.35;;;;;;;0.08;71.87;100797.66;5115176;27;20400;-82
2022/04/04 05:55:41;;;;;;;10.93;9.77;;;;;;;0.12;70.84;100787.50;5105851;28;20907;-79
2022/04/04 05:58:07;;;;;;;14.03;9.47;;;;;;;0.19;71.25;100791.97;5106737;28;20783;-81
2022/04/04 06:00:32;;;;;;;13.23;10.40;;;;;;;0.23;71.77;100789.81;5110160;27;20431;-81
2022/04/04 06:02:57;;;;;;;12.17;10.27;;;;;;;0.24;71.80;100788.78;5112584;27;20418;-82
2022/04/04 06:05:23;;;;;;;12.50;10.70;;;;;;;0.34;72.14;100782.28;5095347;28;20396;-82
2022/04/04 06:07:48;;;;;;;12.60;10.63;;;;;;;0.44;71.85;100780.25;5099034;27;20419;-82
2022/04/04 06:10:15;;;;;;;14.57;12.05;;;;;;;0.38;72.24;100790.75;5100022;27;20431;-82
2022/04/04 06:12:41;;;;;;;13.50;11.27;;;;;;;0.32;72.39;100784.28;5111414;27;20431;-81
2022/04/04 06:15:07;;;;;;;13.70;11.30;;;;;;;0.38;72.70;100786.25;5114813;27;20423;-80
2022/04/04 06:17:32;;;;;;;14.93;10.68;;;;;;;0.41;72.94;100785.91;5106207;28;20400;-81
2022/04/04 06:19:58;;;;;;;11.05;9.68;;;;;;;0.28;72.89;100784.78;5102606;28;20488;-80
2022/04/04 06:22:23;;;;;;;12.07;10.00;;;;;;;0.41;73.14;100785.91;5094910;28;20932;-82
2022/04/04 06:24:49;;;;;;;12.00;10.20;;;;;;;0.55;73.34;100788.88;5107874;27;20404;-82
2022/04/04 06:27:15;;;;;;;14.23;9.93;;;;;;;0.60;72.51;100790.00;5091274;28;20413;-83
2022/04/04 06:29:42;;;;;;;11.80;10.10;;;;;;;0.52;72.79;100798.06;5109996;28;20412;-83
2022/04/04 06:32:09;;;;;;;13.75;9.68;;;;;;;0.52;73.22;100790.91;5105712;28;20408;-83
2022/04/04 06:34:34;;;;;;;14.38;9.95;;;;;;;0.54;72.75;100790.72;5102175;28;20843;-83
2022/04/04 06:37:00;;;;;;;11.60;10.13;;;;;;;0.83;72.96;100803.41;5098403;28;20436;-83
2022/04/04 06:39:25;;;;;;;13.17;9.97;;;;;;;0.90;72.44;100801.72;5115270;28;20433;-83
2022/04/04 06:41:51;;;;;;;11.23;9.52;;;;;;;0.92;72.36;100789.88;5108102;27;20396;-83
2022/04/04 06:44:17;;;;;;;12.80;9.45;;;;;;;1.11;71.80;100793.13;5097124;28;20537;-83
2022/04/04 06:46:43;;;;;;;11.53;9.67;;;;;;;1.29;70.94;100789.16;5107204;28;20452;-83
2022/04/04 06:49:08;;;;;;;11.03;9.43;;;;;;;1.34;70.58;100789.47;5108012;28;20431;-83
2022/04/04 06:51:35;;;;;;;10.30;8.73;;;;;;;1.28;69.95;100787.53;5107662;28;20388;-84
2022/04/04 06:54:03;;;;;;;10.20;8.68;;;;;;;1.40;68.95;100787.94;5105939;28;20449;-83
2022/04/04 06:56:28;;;;;;;10.20;8.93;;;;;;;1.53;68.83;100775.66;5105114;28;20405;-83
2022/04/04 06:58:53;;;;;;;10.30;8.97;;;;;;;1.60;68.74;100775.75;5107497;28;20432;-83
2022/04/04 07:01:19;;;;;;;10.50;9.23;;;;;;;1.63;68.55;100780.75;5097635;28;20886;-84
2022/04/04 07:03:44;;;;;;;10.98;8.98;;;;;;;1.68;68.47;100774.88;5108823;28;20404;-83
2022/04/04 07:06:10;;;;;;;10.48;9.25;;;;;;;1.47;69.07;100775.53;5104604;28;20753;-84
2022/04/04 07:08:35;;;;;;;10.47;9.37;;;;;;;1.60;67.45;100773.09;5105953;28;20414;-83
2022/04/04 07:11:01;;;;;;;14.47;9.30;;;;;;;1.75;67.01;100768.59;5099428;28;20396;-83
2022/04/04 07:13:27;;;;;;;12.13;9.60;;;;;;;1.88;65.90;100768.81;5108787;28;20404;-83
2022/04/04 07:15:52;;;;;;;12.17;10.57;;;;;;;1.82;67.34;100768.72;5097613;28;20478;-83
2022/04/04 07:18:18;;;;;;;11.10;9.70;;;;;;;1.97;67.11;100758.91;5106752;28;20420;-83
2022/04/04 07:20:43;;;;;;;11.57;9.63;;;;;;;2.14;66.30;100768.41;5094671;28;20414;-83
2022/04/04 07:23:08;;;;;;;14.68;10.10;;;;;;;2.45;65.67;100765.56;5099185;28;20413;-83
2022/04/04 07:25:34;;;;;;;10.20;9.13;;;;;;;2.63;63.54;100757.19;5105237;28;20401;-83
2022/04/04 07:27:59;;;;;;;12.17;9.80;;;;;;;2.88;63.61;100754.00;5117401;28;20410;-84
2022/04/04 07:30:26;;;;;;;10.17;8.90;;;;;;;2.98;62.18;100746.50;5106163;28;20398;-83
2022/04/04 07:32:51;;;;;;;10.93;9.50;;;;;;;2.75;62.63;100751.16;5112031;28;20436;-84
2022/04/04 07:35:18;;;;;;;13.00;10.30;;;;;;;2.70;63.05;100742.84;5109355;28;20432;-84
2022/04/04 07:37:46;;;;;;;13.00;9.90;;;;;;;2.85;62.76;100741.00;5114920;27;20394;-84
2022/04/04 07:40:14;;;;;;;11.60;8.32;;;;;;;2.97;62.34;100735.97;5107964;28;20884;-84
2022/04/04 07:42:41;;;;;;;10.35;9.32;;;;;;;2.88;63.82;100734.41;5120744;27;20396;-83
2022/04/04 07:45:09;;;;;;;9.98;9.00;;;;;;;3.00;63.34;100738.25;5101365;28;20382;-85
2022/04/04 07:47:35;;;;;;;8.70;7.85;;;;;;;3.05;62.17;100720.63;5095582;28;20417;-84
2022/04/04 07:50:01;;;;;;;11.50;8.35;;;;;;;3.04;61.81;100721.63;5109592;28;20410;-83
2022/04/04 07:52:27;;;;;;;8.60;7.70;;;;;;;3.06;61.29;100722.25;5094625;28;20466;-84
2022/04/04 07:54:53;;;;;;;11.02;7.50;;;;;;;2.94;62.48;100722.97;5107623;28;20420;-85
2022/04/04 07:57:19;;;;;;;8.20;7.40;;;;;;;3.05;61.24;100717.94;5098088;28;20389;-84
2022/04/04 07:59:45;;;;;;;8.40;7.60;;;;;;;3.16;62.25;100713.94;5108069;28;20497;-83
2022/04/04 08:02:10;;;;;;;8.07;7.30;;;;;;;3.28;62.05;100711.56;5102480;28;20485;-84
2022/04/04 08:04:36;;;;;;;10.10;7.50;;;;;;;3.33;62.00;100714.50;5101497;28;20891;-85
2022/04/04 08:07:01;;;;;;;8.13;6.38;;;;;;;3.50;61.30;100711.38;5094733;28;20382;-84
2022/04/04 08:09:26;;;;;;;7.73;6.93;;;;;;;3.63;60.18;100706.13;5096805;28;20416;-84
2022/04/04 08:11:54;;;;;;;9.77;6.77;;;;;;;3.71;59.22;100712.38;5102138;28;20407;-84
2022/04/04 08:14:19;;;;;;;7.22;6.53;;;;;;;3.83;59.80;100708.13;5102141;28;20394;-83
2022/04/04 08:16:45;;;;;;;7.60;6.77;;;;;;;3.89;60.07;100710.03;5092993;28;20386;-85
2022/04/04 08:19:11;;;;;;;7.20;6.60;;;;;;;3.92;59.33;100707.78;5110655;28;20890;-83
2022/04/04 08:21:36;;;;;;;10.70;6.57;;;;;;;4.05;58.03;100707.06;5098955;28;20487;-84
2022/04/04 08:24:02;;;;;;;7.70;6.90;;;;;;;4.12;59.25;100714.09;5097395;28;20481;-84
2022/04/04 08:26:27;;;;;;;6.67;6.07;;;;;;;4.12;58.37;100695.34;5106530;28;20819;-84
2022/04/04 08:28:53;;;;;;;5.83;5.30;;;;;;;4.12;56.10;100703.38;5097765;28;20414;-84
2022/04/04 08:31:18;;;;;;;7.85;5.82;;;;;;;4.26;56.97;100695.41;5109338;28;20397;-83
2022/04/04 08:33:43;;;;;;;6.67;6.00;;;;;;;4.43;56.47;100697.56;5103066;28;20434;-85
2022/04/04 08:36:08;;;;;;;7.00;6.30;;;;;;;4.49;56.12;100678.00;5106684;28;20445;-84
2022/04/04 08:38:37;;;;;;;7.80;6.10;;;;;;;4.57;54.85;100677.84;5096979;28;20500;-85
2022/04/04 08:41:03;;;;;;;6.80;6.13;;;;;;;4.72;55.09;100683.88;5098058;28;20382;-84
2022/04/04 08:43:34;;;;;;;6.50;5.90;;;;;;;4.99;55.10;100674.03;5101947;28;20388;-84
2022/04/04 08:46:01;;;;;;;7.43;5.25;;;;;;;5.16;52.71;100678.00;5102649;28;20463;-84
2022/04/04 08:48:29;;;;;;;7.97;6.15;;;;;;;5.18;52.09;100672.41;5096965;28;20757;-84
2022/04/04 08:50:55;;;;;;;5.93;5.33;;;;;;;5.12;53.71;100673.22;5109203;28;20468;-83
2022/04/04 08:53:20;;;;;;;7.30;5.73;;;;;;;5.14;53.94;100669.28;5101306;28;20813;-83
2022/04/04 08:55:45;;;;;;;6.22;5.63;;;;;;;5.35;53.16;100670.16;5101546;28;20392;-85
2022/04/04 08:58:11;;;;;;;6.43;5.83;;;;;;;5.73;51.27;100650.50;5093382;28;20928;-84
2022/04/04 09:00:38;;;;;;;5.88;5.10;;;;;;;6.03;49.71;100650.88;5095901;28;20454;-83
2022/04/04 09:03:06;;;;;;;6.00;5.25;;;;;;;6.82;49.19;100649.78;5106210;28;20417;-88
2022/04/04 09:05:49;;;;;;;5.45;5.05;;;;;;;7.92;46.18;100641.84;5104988;28;20392;-85
2022/04/04 09:08:15;;;;;;;6.28;5.72;;;;;;;8.17;46.79;100647.16;5107242;28;20958;-84
2022/04/04 09:10:41;;;;;;;5.63;5.13;;;;;;;8.41;45.34;100651.72;5098585;28;20388;-84
2022/04/04 09:13:12;;;;;;;6.30;5.18;;;;;;;8.60;45.00;100642.53;5104820;28;20394;-83
2022/04/04 09:15:57;;;;;;;5.45;4.97;;;;;;;8.69;44.40;100629.56;5097367;28;20386;-83
2022/04/04 09:18:41;;;;;;;6.18;5.20;;;;;;;9.12;43.09;100629.34;5096332;28;20380;-83
2022/04/04 09:21:07;;;;;;;5.82;5.30;;;;;;;9.87;42.37;100616.84;5102144;28;20387;-83
2022/04/04 09:23:50;;;;;;;5.30;4.80;;;;;;;10.64;39.69;100614.69;5107427;28;20389;-83
2022/04/04 09:26:30;;;;;;;5.13;4.73;;;;;;;10.96;37.96;100613.16;5095294;28;20384;-83
2022/04/04 09:29:06;;;;;;;5.55;5.15;;;;;;;11.06;38.89;100609.81;5095196;28;20426;-83
2022/04/04 09:31:32;;;;;;;5.75;5.22;;;;;;;11.53;37.60;100604.88;5102601;28;20440;-83
2022/04/04 09:34:03;;;;;;;5.80;5.37;;;;;;;13.60;33.97;100601.94;5094417;28;20839;-84
2022/04/04 09:36:29;;;;;;;7.00;6.30;;;;;;;14.94;30.56;100594.69;5098516;28;20416;-83
2022/04/04 09:39:02;;;;;;;7.28;6.32;;;;;;;15.71;29.95;100592.84;5100416;28;20425;-83
2022/04/04 09:41:28;;;;;;;6.80;6.10;;;;;;;15.05;29.71;100592.78;5107565;28;20909;-83
2022/04/04 09:44:02;;;;;;;6.22;5.72;;;;;;;15.42;29.41;100590.63;5096275;28;20391;-86
2022/04/04 09:46:40;;;;;;;7.93;6.75;;;;;;;16.35;28.13;100579.25;5104253;27;20390;-82
2022/04/04 09:49:16;;;;;;;6.90;5.80;;;;;;;17.16;27.12;100589.78;5100149;28;20416;-83
2022/04/04 09:51:52;;;;;;;5.65;5.22;;;;;;;16.97;27.04;100581.41;5094805;28;20408;-82
2022/04/04 09:54:19;;;;;;;7.65;6.45;;;;;;;17.71;26.78;100583.03;5100496;28;20413;-83
2022/04/04 09:56:47;;;;;;;6.63;6.03;;;;;;;19.37;24.64;100578.09;5105010;28;20413;-83
2022/04/04 09:59:15;;;;;;;6.03;5.50;;;;;;;19.87;23.61;100570.13;5094620;28;20421;-82
2022/04/04 10:01:45;;;;;;;5.05;4.72;;;;;;;21.33;21.96;100563.41;5104075;28;20431;-82
2022/04/04 10:04:16;;;;;;;5.78;5.38;;;;;;;20.95;21.75;100552.69;5101038;28;20467;-82
2022/04/04 10:06:47;;;;;;;6.47;5.88;;;;;;;20.54;22.95;100550.06;5094899;28;20409;-82
2022/04/04 10:09:13;;;;;;;5.75;5.00;;;;;;;21.47;22.33;100537.38;5093449;28;20444;-83
2022/04/04 10:11:40;;;;;;;5.35;4.85;;;;;;;22.67;19.86;100543.41;5106784;28;20464;-84
2022/04/04 10:14:06;;;;;;;5.53;5.13;;;;;;;23.43;19.79;100545.69;5101155;28;20763;-83
2022/04/04 10:16:33;;;;;;;4.93;4.53;;;;;;;22.40;20.25;100543.66;5105460;28;20432;-83
2022/04/04 10:18:58;;;;;;;5.60;5.20;;;;;;;22.55;20.07;100531.34;5110318;28;20384;-83
2022/04/04 10:21:25;;;;;;;5.20;4.78;;;;;;;22.81;18.92;100531.38;5106256;28;20419;-83
2022/04/04 10:23:53;;;;;;;6.60;6.00;;;;;;;22.63;19.33;100519.47;5110847;28;20388;-79
2022/04/04 10:26:21;;;;;;;6.90;6.20;;;;;;;23.16;18.87;100522.75;5109875;28;20759;-82
2022/04/04 10:28:48;;;;;;;6.85;6.15;;;;;;;22.78;19.43;100518.22;5102314;28;20803;-85
2022/04/04 10:31:23;;;;;;;5.22;4.85;;;;;;;23.40;17.92;100502.91;5094400;27;20675;-82
2022/04/04 10:33:53;;;;;;;5.88;5.47;;;;;;;23.81;18.28;100507.00;5121880;28;20828;-82
2022/04/04 10:36:25;;;;;;;6.57;5.28;;;;;;;23.88;17.38;100499.78;5101259;27;20422;-82
2022/04/04 10:38:57;;;;;;;5.22;4.90;;;;;;;22.90;19.11;100490.75;5102667;28;20586;-82
2022/04/04 10:41:27;;;;;;;6.53;5.82;;;;;;;21.82;20.35;100491.50;5099523;28;20409;-82
2022/04/04 10:43:53;;;;;;;5.25;4.85;;;;;;;22.08;19.39;100484.13;5106341;28;20403;-82
2022/04/04 10:46:20;;;;;;;5.32;4.90;;;;;;;20.59;21.07;100483.03;5104609;28;20490;-82
2022/04/04 10:48:58;;;;;;;6.13;5.33;;;;;;;20.28;21.61;100480.19;5107444;28;20412;-80
2022/04/04 10:51:28;;;;;;;5.20;4.73;;;;;;;22.12;19.54;100473.28;5116381;28;20397;-82
2022/04/04 10:54:10;;;;;;;5.47;5.07;;;;;;;22.52;18.59;100454.66;5110343;28;20446;-83
2022/04/04 10:56:44;;;;;;;5.40;5.00;;;;;;;23.12;19.67;100452.66;5114027;28;20431;-81
2022/04/04 10:59:15;;;;;;;4.82;4.43;;;;;;;22.05;20.12;100448.09;5109671;28;20424;-81
2022/04/04 11:01:45;;;;;;;5.25;4.85;;;;;;;18.56;22.73;100446.78;5104939;28;20823;-82
2022/04/04 11:04:37;;;;;;;5.22;4.93;;;;;;;17.74;23.85;100434.44;5101958;28;20406;-82
2022/04/04 11:10:06;;;;;;;5.05;4.72;;;;;;;18.83;22.61;100435.91;5106116;28;20407;-82
2022/04/04 11:13:02;;;;;;;5.07;4.78;;;;;;;17.73;24.14;100421.84;5111713;27;20429;-81
2022/04/04 11:15:55;;;;;;;5.50;5.00;;;;;;;21.51;20.21;100416.22;5106971;28;20932;-82
2022/04/04 11:18:22;;;;;;;4.93;4.53;;;;;;;24.12;17.99;100408.69;5107760;28;20490;-83
2022/04/04 11:20:53;;;;;;;5.10;4.70;;;;;;;22.09;19.76;100407.69;5105987;28;20404;-83
2022/04/04 11:23:20;;;;;;;5.03;4.72;;;;;;;22.32;20.20;100403.66;5103279;28;20406;-82
2022/04/04 11:25:53;;;;;;;4.70;4.50;;;;;;;20.91;20.62;100391.91;5110566;28;20796;-82
2022/04/04 11:28:22;;;;;;;5.20;4.88;;;;;;;21.98;18.90;100390.63;5111109;28;20914;-83
2022/04/04 11:30:51;;;;;;;4.55;4.32;;;;;;;20.79;20.52;100397.19;5107322;28;20431;-83
2022/04/04 11:33:22;;;;;;;4.70;4.40;;;;;;;20.31;21.96;100397.00;5109713;28;20412;-88